A- A+ FrançaisEnglishEspañol中国

le plus proche LFBT Tarbes-Lourdes-PyrénéesLFCS Bordeaux-Leognan-SaucatsLFGZ Nuits-Saint-GeorgesLFDY Bordeaux-Yvrac

manche à air

La météo aéronautique pour les pilotes, la préparation du vol avec les METAR (METeorological Aerodrome Report, message d'observation des conditions météorologiques pour l'aviation) et Les TAF (Terminal Aerodrome Forecast : message de prévision à court terme des conditions météorologiques pour l'aviation). Et les autres ressources comme les VAC (Visual Approch Chart) et les NOTAM (Notice To Airman) pour préprer les vols.

Aéroport Penticton (Canada) / OACI CYYF/ IATA YYF

L'altitude de l'aéroport Penticton est de 344 m=1129 ft. Il est situé à proximité de Penticton (Canada). La météo générale à 5 jours est disponible pour Penticton situé à 2.3 km.

METAR de l'aéroport Penticton - CYYF

CYYF 210700Z 35002KT 5SM BR BKN006 OVC018 02/02 A2973 RMK SF6SC2 SLP081

Décodage du METAR de l'aéroport Penticton (CA)

METAR émis par CYYF le samedi 21 décembre 2019 à 07:00 heure TU. Attention ce METAR est obsolète car il a été émis il y a 15 heure et 45 minutes.

La visibilité est de 8 km=5 sm.

La température est de 2°C=36 °F et le point rosée est de 2°C=36 °F . Ce qui correspond à 100% d'humidité relative.

Le QNH est de 1007 hPa=29.74 inHg

Vent de 2 kt=4 km/h, orienté à 350°.

Nuages : Couverture nuageuse fragmentée à 600 ft=180 mètres. Couverture nuageuse soudée à 1800 ft=550 mètres.

BR

RMK SF6SC2 SLP081

TAF de l'aéroport Penticton - CYYF

CYYF 210643Z 2107/2119 VRB03KT 2SM BR BKN005 OVC015 TEMPO 2107/2113 6SM -RA BR SCT005 OVC015 BECMG 2111/2113 18010KT FM211300 18010KT P6SM SCT015 OVC025 TEMPO 2113/2119 5SM -RA BR SCT008 OVC015 BECMG 2113/2115 18015G25KT RMK NXT FCST BY 211300Z

CYYF 210643Z 2107/2119 VRB03KT 2SM brume couverture nuageuse fragmentée à 005 couverture nuageuse soudée à 015 temporairement 2107/2113 6SM faible RA brume nuages épars à 005 couverture nuageuse soudée à 015 devenant 2111/2113 18010KT FM211300 18010KT P6SM nuages épars à 015 couverture nuageuse soudée à 025 temporairement 2113/2119 5SM faible RA brume nuages épars à 008 couverture nuageuse soudée à 015 devenant 2113/2115 18015G25KT remarques NXT trombe ST BY 211300Z

Aéroport à proximité de Penticton

Météo générale à 5 jours à Penticton (2.3 km)CYLW Aéroport Kelowna (57 km)CYDC Aéroport Princeton (66 km)CYVK Aéroport Vernon (89 km)CZGF Aéroport Grand Forks (99 km)KOMK Aéroport Omak (111 km)CYHE Aéroport Hope (138 km)

Vue aérienne de l'aéroport Penticton

NOTAM de l'aéroport Penticton

Les NOTAM sont fournis sans aucune garantie de leur actualité. Le pilote est le seul responsable de la vérification de sa validité avant de l'utiliser opérationnellement pour préparer un vol ou l'utiliser lors de sa navigation.

Pas de NOTAM

Sources des données